Time;durP1;ratioP1;P1;durP2;ratioP2;P2;SDS_P1;SDS_P2;PMS_P1;PMS_P2;Temp;Humidity;BMP_temperature;BMP_pressure;BME280_temperature;BME280_humidity;BME280_pressure;Samples;Min_cycle;Max_cycle;Signal;HPM_P1;HPM_P2
2023/01/05 00:01:37;;;;;;;;;;;;;;;-145.06;100.00;60892.56;5913492;23;19909;-91
2023/01/05 00:04:16;;;;;;;;;;;;;;;-145.06;100.00;60892.56;5916610;23;19909;-91
2023/01/05 00:06:55;;;;;;;;;;;;;;;-145.06;100.00;60892.56;5915426;23;19937;-91
2023/01/05 00:09:34;;;;;;;;;;;;;;;-145.06;100.00;60892.56;5915500;23;19909;-92
2023/01/05 00:24:10;;;;;;;;;;;;;;;-145.06;100.00;60892.56;5925113;23;19908;-92
2023/01/05 00:26:49;;;;;;;;;;;;;;;-145.06;100.00;60892.56;5914499;23;19909;-91
2023/01/05 00:29:28;;;;;;;;;;;;;;;-145.06;100.00;60892.56;5915455;23;19905;-92
2023/01/05 00:32:07;;;;;;;;;;;;;;;-145.06;100.00;60892.56;5916091;23;19909;-91
2023/01/05 00:34:46;;;;;;;;;;;;;;;-145.06;100.00;60892.56;5916369;23;19905;-89
2023/01/05 00:37:26;;;;;;;;;;;;;;;-145.06;100.00;60892.56;5916172;23;19956;-92
2023/01/05 00:40:07;;;;;;;;;;;;;;;-145.06;100.00;60892.56;5915478;23;19983;-92
2023/01/05 00:42:46;;;;;;;;;;;;;;;-145.06;100.00;60892.56;5916658;23;19909;-91
2023/01/05 00:45:25;;;;;;;;;;;;;;;-145.06;100.00;60892.56;5915940;23;19945;-92
2023/01/05 00:48:04;;;;;;;;;;;;;;;-145.06;100.00;60892.56;5915361;23;20316;-92
2023/01/05 00:50:44;;;;;;;;;;;;;;;-145.06;100.00;60892.56;5916200;23;19909;-91
2023/01/05 00:53:23;;;;;;;;;;;;;;;-145.06;100.00;60892.56;5916615;23;19984;-92
2023/01/05 00:56:03;;;;;;;;;;;;;;;-145.06;100.00;60892.56;5926527;23;19905;-92
2023/01/05 00:58:41;;;;;;;;;;;;;;;-145.06;100.00;60892.56;5916948;23;19905;-90
2023/01/05 01:01:20;;;;;;;;;;;;;;;-145.06;100.00;60892.56;5916578;23;19929;-91
2023/01/05 01:03:59;;;;;;;;;;;;;;;-145.06;100.00;60892.56;5917256;23;20504;-93
2023/01/05 01:06:38;;;;;;;;;;;;;;;-145.06;100.00;60892.56;5934029;23;19936;-92
2023/01/05 01:09:17;;;;;;;;;;;;;;;-145.06;100.00;60892.56;5932055;23;19912;-91
2023/01/05 01:11:56;;;;;;;;;;;;;;;-145.06;100.00;60892.56;5915535;23;20324;-92
2023/01/05 01:14:35;;;;;;;;;;;;;;;-145.06;100.00;60892.56;5914867;23;19940;-93
2023/01/05 01:17:15;;;;;;;;;;;;;;;-145.06;100.00;60892.56;5915102;23;19928;-90
2023/01/05 01:19:54;;;;;;;;;;;;;;;-145.06;100.00;60892.56;5916527;23;19909;-91
2023/01/05 01:22:33;;;;;;;;;;;;;;;-145.06;100.00;60892.56;5915686;23;19905;-92
2023/01/05 01:25:11;;;;;;;;;;;;;;;-145.06;100.00;60892.56;5915717;23;19909;-91
2023/01/05 01:27:51;;;;;;;;;;;;;;;-145.06;100.00;60892.56;5914783;23;19913;-92
2023/01/05 01:30:30;;;;;;;;;;;;;;;-145.06;100.00;60892.56;5915474;23;19908;-91
2023/01/05 01:33:09;;;;;;;;;;;;;;;-145.06;100.00;60892.56;5915451;23;19905;-91
2023/01/05 01:35:48;;;;;;;;;;;;;;;-145.06;100.00;60892.56;5915064;23;19905;-91
2023/01/05 01:38:26;;;;;;;;;;;;;;;-145.06;100.00;60892.56;5915480;23;19909;-92
2023/01/05 01:41:06;;;;;;;;;;;;;;;-145.06;100.00;60892.56;5914936;23;19904;-91
2023/01/05 01:43:49;;;;;;;;;;;;;;;-145.06;100.00;60892.56;5915864;23;19905;-92
2023/01/05 01:46:28;;;;;;;;;;;;;;;-145.06;100.00;60892.56;5925237;23;19905;-91
2023/01/05 01:49:09;;;;;;;;;;;;;;;-145.06;100.00;60892.56;5915499;23;19913;-91
2023/01/05 01:51:48;;;;;;;;;;;;;;;-145.06;100.00;60892.56;5916256;23;19904;-92
2023/01/05 01:54:27;;;;;;;;;;;;;;;-145.06;100.00;60892.56;5916050;23;19909;-92
2023/01/05 01:57:09;;;;;;;;;;;;;;;-145.06;100.00;60892.56;5915857;23;19905;-92
2023/01/05 01:59:48;;;;;;;;;;;;;;;-145.06;100.00;60892.56;5916284;23;19905;-90
2023/01/05 02:02:28;;;;;;;;;;;;;;;-145.06;100.00;60892.56;5915916;23;20209;-92
2023/01/05 02:05:09;;;;;;;;;;;;;;;-145.06;100.00;60892.56;5916225;23;19909;-91
2023/01/05 02:07:48;;;;;;;;;;;;;;;-145.06;100.00;60892.56;5915168;23;19913;-92
2023/01/05 02:10:47;;;;;;;;;;;;;;;-145.06;100.00;60892.56;5915722;23;19928;-92
2023/01/05 02:13:26;;;;;;;;;;;;;;;-145.06;100.00;60892.56;5915447;23;19909;-92
2023/01/05 02:16:16;;;;;;;;;;;;;;;-145.06;100.00;60892.56;5915756;23;19909;-91
2023/01/05 02:19:01;;;;;;;;;;;;;;;-145.06;100.00;60892.56;5915246;23;19905;-91
2023/01/05 02:21:58;;;;;;;;;;;;;;;-145.06;100.00;60892.56;5914913;23;19909;-92
2023/01/05 02:24:37;;;;;;;;;;;;;;;-145.06;100.00;60892.56;5915699;23;19904;-90
2023/01/05 02:27:29;;;;;;;;;;;;;;;-145.06;100.00;60892.56;5914860;23;20253;-92
2023/01/05 02:30:08;;;;;;;;;;;;;;;-145.06;100.00;60892.56;5914952;23;20221;-91
2023/01/05 02:32:55;;;;;;;;;;;;;;;-145.06;100.00;60892.56;5915641;23;19908;-91
2023/01/05 02:35:46;;;;;;;;;;;;;;;-145.06;100.00;60892.56;5914842;23;20217;-90
2023/01/05 02:38:41;;;;;;;;;;;;;;;-145.06;100.00;60892.56;5914937;23;19905;-92
2023/01/05 02:41:32;;;;;;;;;;;;;;;-145.06;100.00;60892.56;5915438;23;19927;-92
2023/01/05 02:44:14;;;;;;;;;;;;;;;-145.06;100.00;60892.56;5915807;23;19908;-92
2023/01/05 02:47:03;;;;;;;;;;;;;;;-145.06;100.00;60892.56;5914388;23;19909;-91
2023/01/05 02:49:42;;;;;;;;;;;;;;;-145.06;100.00;60892.56;5926049;23;19912;-90
2023/01/05 02:52:22;;;;;;;;;;;;;;;-145.06;100.00;60892.56;5914372;23;19905;-92
2023/01/05 02:55:06;;;;;;;;;;;;;;;-145.06;100.00;60892.56;5915860;23;19975;-92
2023/01/05 02:57:52;;;;;;;;;;;;;;;-145.06;100.00;60892.56;5914764;23;19905;-90
2023/01/05 03:00:34;;;;;;;;;;;;;;;-145.06;100.00;60892.56;5915948;23;19908;-90
2023/01/05 03:03:31;;;;;;;;;;;;;;;-145.06;100.00;60892.56;5915339;23;19905;-91
2023/01/05 03:06:12;;;;;;;;;;;;;;;-145.06;100.00;60892.56;5915565;23;19909;-91
2023/01/05 03:08:54;;;;;;;;;;;;;;;-145.06;100.00;60892.56;5914880;23;19931;-90
2023/01/05 03:15:12;;;;;;;;;;;;;;;-145.06;100.00;60892.56;5899315;23;19905;-92
2023/01/05 03:17:57;;;;;;;;;;;;;;;-145.06;100.00;60892.56;5914814;23;19905;-91
2023/01/05 03:20:39;;;;;;;;;;;;;;;-145.06;100.00;60892.56;5916077;23;19904;-93
2023/01/05 03:35:31;;;;;;;;;;;;;;;-145.06;100.00;60892.56;5926641;23;19905;-91
2023/01/05 03:38:32;;;;;;;;;;;;;;;-145.06;100.00;60892.56;5913860;23;19948;-91
2023/01/05 03:41:13;;;;;;;;;;;;;;;-145.06;100.00;60892.56;5916012;23;20427;-91
2023/01/05 03:43:52;;;;;;;;;;;;;;;-145.06;100.00;60892.56;5915441;23;19936;-92
2023/01/05 03:46:31;;;;;;;;;;;;;;;-145.06;100.00;60892.56;5914208;23;19980;-93
2023/01/05 03:49:10;;;;;;;;;;;;;;;-145.06;100.00;60892.56;5914561;23;20216;-92
2023/01/05 03:51:49;;;;;;;;;;;;;;;-145.06;100.00;60892.56;5915951;23;19908;-91
2023/01/05 03:54:28;;;;;;;;;;;;;;;-145.06;100.00;60892.56;5915710;23;19932;-91
2023/01/05 03:57:07;;;;;;;;;;;;;;;-145.06;100.00;60892.56;5916831;23;19909;-93
2023/01/05 03:59:46;;;;;;;;;;;;;;;-145.06;100.00;60892.56;5916394;23;19928;-92
2023/01/05 04:02:25;;;;;;;;;;;;;;;-145.06;100.00;60892.56;5917051;23;19905;-92
2023/01/05 04:05:04;;;;;;;;;;;;;;;-145.06;100.00;60892.56;5920408;23;19905;-92
2023/01/05 04:07:43;;;;;;;;;;;;;;;-145.06;100.00;60892.56;5935206;23;19901;-92
2023/01/05 04:10:22;;;;;;;;;;;;;;;-145.06;100.00;60892.56;5926922;23;19913;-91
2023/01/05 04:13:01;;;;;;;;;;;;;;;-145.06;100.00;60892.56;5916762;23;19905;-92
2023/01/05 04:15:40;;;;;;;;;;;;;;;-145.06;100.00;60892.56;5915328;23;19913;-92
2023/01/05 04:18:19;;;;;;;;;;;;;;;-145.06;100.00;60892.56;5915618;23;19928;-92
2023/01/05 04:20:58;;;;;;;;;;;;;;;-145.06;100.00;60892.56;5915439;23;19908;-91
2023/01/05 04:23:37;;;;;;;;;;;;;;;-145.06;100.00;60892.56;5916374;23;19904;-91
2023/01/05 04:26:16;;;;;;;;;;;;;;;-145.06;100.00;60892.56;5915478;23;19904;-91
2023/01/05 04:28:55;;;;;;;;;;;;;;;-145.06;100.00;60892.56;5915482;23;19908;-92
2023/01/05 04:31:34;;;;;;;;;;;;;;;-145.06;100.00;60892.56;5915509;23;19932;-93
2023/01/05 04:34:13;;;;;;;;;;;;;;;-145.06;100.00;60892.56;5915735;23;19904;-92
2023/01/05 04:36:52;;;;;;;;;;;;;;;-145.06;100.00;60892.56;5915089;23;19905;-92
2023/01/05 04:39:31;;;;;;;;;;;;;;;-145.06;100.00;60892.56;5915823;23;20327;-92
2023/01/05 04:42:10;;;;;;;;;;;;;;;-145.06;100.00;60892.56;5915482;23;19932;-91
2023/01/05 04:44:49;;;;;;;;;;;;;;;-145.06;100.00;60892.56;5915905;23;20260;-91
2023/01/05 04:47:28;;;;;;;;;;;;;;;-145.06;100.00;60892.56;5914363;23;19913;-90
2023/01/05 04:50:07;;;;;;;;;;;;;;;-145.06;100.00;60892.56;5896135;23;19944;-91
2023/01/05 04:52:46;;;;;;;;;;;;;;;-145.06;100.00;60892.56;5897107;23;19909;-90
2023/01/05 04:55:26;;;;;;;;;;;;;;;-145.06;100.00;60892.56;5896503;23;19949;-90
2023/01/05 04:58:05;;;;;;;;;;;;;;;-145.06;100.00;60892.56;5896172;23;19905;-89
2023/01/05 05:00:44;;;;;;;;;;;;;;;-145.06;100.00;60892.56;5896899;23;19905;-90
2023/01/05 05:03:23;;;;;;;;;;;;;;;-145.06;100.00;60892.56;5896731;23;19976;-91
2023/01/05 05:06:02;;;;;;;;;;;;;;;-145.06;100.00;60892.56;5898111;23;19909;-89
2023/01/05 05:08:42;;;;;;;;;;;;;;;-145.06;100.00;60892.56;5929503;23;19909;-91
2023/01/05 05:11:20;;;;;;;;;;;;;;;-145.06;100.00;60892.56;5896484;23;19908;-90
2023/01/05 05:13:59;;;;;;;;;;;;;;;-145.06;100.00;60892.56;5896035;23;20377;-89
2023/01/05 05:16:38;;;;;;;;;;;;;;;-145.06;100.00;60892.56;5894950;23;19905;-90
2023/01/05 05:19:17;;;;;;;;;;;;;;;-145.06;100.00;60892.56;5894814;23;19924;-90
2023/01/05 05:21:56;;;;;;;;;;;;;;;-145.06;100.00;60892.56;5918821;23;19909;-92
2023/01/05 05:24:35;;;;;;;;;;;;;;;-145.06;100.00;60892.56;5898652;23;20354;-90
2023/01/05 05:27:14;;;;;;;;;;;;;;;-145.06;100.00;60892.56;5898560;23;20316;-91
2023/01/05 05:29:59;;;;;;;;;;;;;;;-145.06;100.00;60892.56;5899006;23;19905;-93
2023/01/05 05:32:38;;;;;;;;;;;;;;;-145.06;100.00;60892.56;5898254;23;19904;-92
2023/01/05 05:35:17;;;;;;;;;;;;;;;-145.06;100.00;60892.56;5898745;23;19905;-89
2023/01/05 05:37:58;;;;;;;;;;;;;;;-145.06;100.00;60892.56;5898048;23;20457;-90
2023/01/05 05:40:38;;;;;;;;;;;;;;;-145.06;100.00;60892.56;5899638;23;19909;-91
2023/01/05 05:43:17;;;;;;;;;;;;;;;-145.06;100.00;60892.56;5899351;23;19905;-91
2023/01/05 05:45:56;;;;;;;;;;;;;;;-145.06;100.00;60892.56;5896724;23;19909;-92
2023/01/05 05:48:35;;;;;;;;;;;;;;;-145.06;100.00;60892.56;5909288;23;19932;-90
2023/01/05 05:51:14;;;;;;;;;;;;;;;-145.06;100.00;60892.56;5918446;23;19924;-91
2023/01/05 05:53:52;;;;;;;;;;;;;;;-145.06;100.00;60892.56;5919771;23;19904;-89
2023/01/05 05:56:31;;;;;;;;;;;;;;;-145.06;100.00;60892.56;5918514;23;20208;-92
2023/01/05 05:59:10;;;;;;;;;;;;;;;-145.06;100.00;60892.56;5918126;23;19904;-91
2023/01/05 06:01:51;;;;;;;;;;;;;;;-145.06;100.00;60892.56;5919486;23;19908;-91
2023/01/05 06:04:30;;;;;;;;;;;;;;;-145.06;100.00;60892.56;5919552;23;19908;-92
2023/01/05 06:07:09;;;;;;;;;;;;;;;-145.06;100.00;60892.56;5918025;23;19909;-93
2023/01/05 06:09:48;;;;;;;;;;;;;;;-145.06;100.00;60892.56;5929858;23;19905;-92
2023/01/05 06:12:27;;;;;;;;;;;;;;;-145.06;100.00;60892.56;5917945;23;19909;-92
2023/01/05 06:15:06;;;;;;;;;;;;;;;-145.06;100.00;60892.56;5919487;23;19909;-91
2023/01/05 06:17:47;;;;;;;;;;;;;;;-145.06;100.00;60892.56;5919427;23;19905;-91
2023/01/05 06:20:26;;;;;;;;;;;;;;;-145.06;100.00;60892.56;5918511;23;19905;-91
2023/01/05 06:23:05;;;;;;;;;;;;;;;-145.06;100.00;60892.56;5919293;23;19992;-92
2023/01/05 06:25:44;;;;;;;;;;;;;;;-145.06;100.00;60892.56;5919727;23;19905;-91
2023/01/05 06:28:23;;;;;;;;;;;;;;;-145.06;100.00;60892.56;5918959;23;20513;-91
2023/01/05 06:31:02;;;;;;;;;;;;;;;-145.06;100.00;60892.56;5919677;23;20365;-92
2023/01/05 06:33:41;;;;;;;;;;;;;;;-145.06;100.00;60892.56;5918335;23;19924;-92
2023/01/05 06:36:20;;;;;;;;;;;;;;;-145.06;100.00;60892.56;5918555;23;19991;-92
2023/01/05 06:38:58;;;;;;;;;;;;;;;-145.06;100.00;60892.56;5929774;23;19904;-92
2023/01/05 06:41:37;;;;;;;;;;;;;;;-145.06;100.00;60892.56;5918741;23;19905;-92
2023/01/05 06:44:17;;;;;;;;;;;;;;;-145.06;100.00;60892.56;5919831;23;20533;-92
2023/01/05 06:46:56;;;;;;;;;;;;;;;-145.06;100.00;60892.56;5918537;23;20355;-91
2023/01/05 06:49:35;;;;;;;;;;;;;;;-145.06;100.00;60892.56;5897356;23;19904;-92
2023/01/05 06:52:14;;;;;;;;;;;;;;;-145.06;100.00;60892.56;5897149;23;19905;-92
2023/01/05 06:54:53;;;;;;;;;;;;;;;-145.06;100.00;60892.56;5897534;23;19936;-92
2023/01/05 06:57:32;;;;;;;;;;;;;;;-145.06;100.00;60892.56;5897390;23;19968;-93
2023/01/05 07:00:11;;;;;;;;;;;;;;;-145.06;100.00;60892.56;5897111;23;19908;-93
2023/01/05 07:02:50;;;;;;;;;;;;;;;-145.06;100.00;60892.56;5898228;23;19913;-93
2023/01/05 07:05:30;;;;;;;;;;;;;;;-145.06;100.00;60892.56;5903583;23;19893;-92
2023/01/05 07:08:08;;;;;;;;;;;;;;;-145.06;100.00;60892.56;5915978;23;19900;-93
2023/01/05 07:10:48;;;;;;;;;;;;;;;-145.06;100.00;60892.56;5904934;23;19912;-91
2023/01/05 07:13:27;;;;;;;;;;;;;;;-145.06;100.00;60892.56;5898278;23;19908;-92
2023/01/05 07:16:06;;;;;;;;;;;;;;;-145.06;100.00;60892.56;5896404;23;20219;-91
2023/01/05 07:18:45;;;;;;;;;;;;;;;-145.06;100.00;60892.56;5896144;23;19905;-91
2023/01/05 07:21:24;;;;;;;;;;;;;;;-145.06;100.00;60892.56;5896457;23;19904;-91
2023/01/05 07:24:03;;;;;;;;;;;;;;;-145.06;100.00;60892.56;5895856;23;19908;-91
2023/01/05 07:26:42;;;;;;;;;;;;;;;-145.06;100.00;60892.56;5894887;23;19909;-91
2023/01/05 07:29:21;;;;;;;;;;;;;;;-145.06;100.00;60892.56;5896021;23;19909;-91
2023/01/05 07:32:00;;;;;;;;;;;;;;;-145.06;100.00;60892.56;5899082;23;19913;-92
2023/01/05 07:34:39;;;;;;;;;;;;;;;-145.06;100.00;60892.56;5899464;23;19905;-92
2023/01/05 07:37:18;;;;;;;;;;;;;;;-145.06;100.00;60892.56;5898137;23;19932;-91
2023/01/05 07:39:57;;;;;;;;;;;;;;;-145.06;100.00;60892.56;5898402;23;19952;-92
2023/01/05 07:42:36;;;;;;;;;;;;;;;-145.06;100.00;60892.56;5898310;23;19909;-92
2023/01/05 07:45:15;;;;;;;;;;;;;;;-145.06;100.00;60892.56;5898031;23;20320;-93
2023/01/05 07:47:54;;;;;;;;;;;;;;;-145.06;100.00;60892.56;5901441;23;19908;-92
2023/01/05 07:50:32;;;;;;;;;;;;;;;-145.06;100.00;60892.56;5916406;23;19909;-91
2023/01/05 07:53:12;;;;;;;;;;;;;;;-145.06;100.00;60892.56;5917917;23;19905;-90
2023/01/05 07:55:58;;;;;;;;;;;;;;;-145.06;100.00;60892.56;5917190;23;19908;-91
2023/01/05 07:58:37;;;;;;;;;;;;;;;-145.06;100.00;60892.56;5918154;23;19905;-91
2023/01/05 08:01:17;;;;;;;;;;;;;;;-145.06;100.00;60892.56;5917176;23;19909;-91
2023/01/05 08:03:56;;;;;;;;;;;;;;;-145.06;100.00;60892.56;5916893;23;19904;-90
2023/01/05 08:06:35;;;;;;;;;;;;;;;-145.06;100.00;60892.56;5916828;23;19936;-92
2023/01/05 08:12:11;;;;;;;;;;;;;;;-145.06;100.00;60892.56;5927708;23;19909;-91
2023/01/05 08:14:50;;;;;;;;;;;;;;;-145.06;100.00;60892.56;5917630;23;20261;-91
2023/01/05 08:17:29;;;;;;;;;;;;;;;-145.06;100.00;60892.56;5917425;23;19904;-90
2023/01/05 08:20:09;;;;;;;;;;;;;;;-145.06;100.00;60892.56;5917742;23;19905;-91
2023/01/05 08:22:51;;;;;;;;;;;;;;;-145.06;100.00;60892.56;5918023;23;19905;-90
2023/01/05 08:25:30;;;;;;;;;;;;;;;-145.06;100.00;60892.56;5919134;23;19913;-91
2023/01/05 08:28:09;;;;;;;;;;;;;;;-145.06;100.00;60892.56;5918473;23;19908;-92
2023/01/05 08:30:49;;;;;;;;;;;;;;;-145.06;100.00;60892.56;5918325;23;19909;-91
2023/01/05 08:33:28;;;;;;;;;;;;;;;-145.06;100.00;60892.56;5918637;23;19908;-90
2023/01/05 08:36:11;;;;;;;;;;;;;;;-145.06;100.00;60892.56;5918514;23;20136;-91
2023/01/05 08:38:50;;;;;;;;;;;;;;;-145.06;100.00;60892.56;5918907;23;20328;-91
2023/01/05 08:41:31;;;;;;;;;;;;;;;-145.06;100.00;60892.56;5918609;23;19905;-90
2023/01/05 08:44:11;;;;;;;;;;;;;;;-145.06;100.00;60892.56;5919134;23;19909;-90
2023/01/05 08:46:50;;;;;;;;;;;;;;;-145.06;100.00;60892.56;5928969;23;19913;-90
2023/01/05 08:49:29;;;;;;;;;;;;;;;-145.06;100.00;60892.56;5869402;23;19913;-91
2023/01/05 08:52:08;;;;;;;;;;;;;;;-145.06;100.00;60892.56;5870498;23;19905;-91
2023/01/05 08:54:47;;;;;;;;;;;;;;;-145.06;100.00;60892.56;5870708;23;19909;-91
2023/01/05 08:57:26;;;;;;;;;;;;;;;-145.06;100.00;60892.56;5870335;23;19909;-90
2023/01/05 09:00:05;;;;;;;;;;;;;;;-145.06;100.00;60892.56;5870915;23;19905;-91
2023/01/05 09:02:44;;;;;;;;;;;;;;;-145.06;100.00;60892.56;5870645;23;20340;-90
2023/01/05 09:05:23;;;;;;;;;;;;;;;-145.06;100.00;60892.56;5870593;23;19948;-91
2023/01/05 09:08:05;;;;;;;;;;;;;;;-145.06;100.00;60892.56;5870471;23;19909;-91
2023/01/05 09:10:44;;;;;;;;;;;;;;;-145.06;100.00;60892.56;5869900;23;19909;-91
2023/01/05 09:13:23;;;;;;;;;;;;;;;-145.06;100.00;60892.56;5869758;23;20136;-90
2023/01/05 09:16:03;;;;;;;;;;;;;;;-145.06;100.00;60892.56;5868273;23;19908;-92
2023/01/05 09:18:42;;;;;;;;;;;;;;;-145.06;100.00;60892.56;5868716;23;19905;-90
2023/01/05 09:21:21;;;;;;;;;;;;;;;-145.06;100.00;60892.56;5869541;23;19905;-91
2023/01/05 09:24:00;;;;;;;;;;;;;;;-145.06;100.00;60892.56;5870198;23;19909;-89
2023/01/05 09:26:40;;;;;;;;;;;;;;;-145.06;100.00;60892.56;5869548;23;19909;-91
2023/01/05 09:29:19;;;;;;;;;;;;;;;-145.06;100.00;60892.56;5869432;23;20232;-90
2023/01/05 09:31:58;;;;;;;;;;;;;;;-145.06;100.00;60892.56;5869318;23;19916;-92
2023/01/05 09:34:37;;;;;;;;;;;;;;;-145.06;100.00;60892.56;5868657;23;19980;-91
2023/01/05 09:37:19;;;;;;;;;;;;;;;-145.06;100.00;60892.56;5868808;23;20344;-92
2023/01/05 09:39:58;;;;;;;;;;;;;;;-145.06;100.00;60892.56;5868855;23;19909;-91
2023/01/05 09:42:41;;;;;;;;;;;;;;;-145.06;100.00;60892.56;5868676;23;19905;-91
2023/01/05 09:45:24;;;;;;;;;;;;;;;-145.06;100.00;60892.56;5869591;23;19909;-89
2023/01/05 09:48:03;;;;;;;;;;;;;;;-145.06;100.00;60892.56;5887636;23;19933;-91
2023/01/05 09:50:43;;;;;;;;;;;;;;;-145.06;100.00;60892.56;5917038;23;19999;-91
2023/01/05 09:53:27;;;;;;;;;;;;;;;-145.06;100.00;60892.56;5917691;23;19904;-91
2023/01/05 09:56:13;;;;;;;;;;;;;;;-145.06;100.00;60892.56;5917157;23;19904;-90
2023/01/05 09:58:58;;;;;;;;;;;;;;;-145.06;100.00;60892.56;5917091;23;19905;-90
2023/01/05 10:01:38;;;;;;;;;;;;;;;-145.06;100.00;60892.56;5917413;23;19905;-92
2023/01/05 10:04:19;;;;;;;;;;;;;;;-145.06;100.00;60892.56;5917593;23;19905;-89
2023/01/05 10:07:06;;;;;;;;;;;;;;;-145.06;100.00;60892.56;5921414;23;19896;-91
2023/01/05 10:09:46;;;;;;;;;;;;;;;-145.06;100.00;60892.56;5935969;23;19941;-90
2023/01/05 10:13:03;;;;;;;;;;;;;;;-145.06;100.00;60892.56;5925432;23;20224;-90
2023/01/05 10:15:47;;;;;;;;;;;;;;;-145.06;100.00;60892.56;5916914;23;19905;-91
2023/01/05 10:18:28;;;;;;;;;;;;;;;-145.06;100.00;60892.56;5916374;23;19913;-90
2023/01/05 10:21:26;;;;;;;;;;;;;;;-145.06;100.00;60892.56;5927144;23;19905;-89
2023/01/05 10:24:06;;;;;;;;;;;;;;;-145.06;100.00;60892.56;5917670;23;19905;-91
2023/01/05 10:26:51;;;;;;;;;;;;;;;-145.06;100.00;60892.56;5917235;23;19909;-92
2023/01/05 10:29:36;;;;;;;;;;;;;;;-145.06;100.00;60892.56;5916356;23;19913;-90
2023/01/05 10:32:15;;;;;;;;;;;;;;;-145.06;100.00;60892.56;5917368;23;19904;-90
2023/01/05 10:34:58;;;;;;;;;;;;;;;-145.06;100.00;60892.56;5918158;23;20213;-92
2023/01/05 10:37:56;;;;;;;;;;;;;;;-145.06;100.00;60892.56;5916752;23;19987;-90
2023/01/05 10:40:51;;;;;;;;;;;;;;;-145.06;100.00;60892.56;5916924;23;20677;-89
2023/01/05 10:43:43;;;;;;;;;;;;;;;-145.06;100.00;60892.56;5917042;23;20209;-90
2023/01/05 10:46:23;;;;;;;;;;;;;;;-145.06;100.00;60892.56;5917688;23;19908;-91
2023/01/05 10:49:04;;;;;;;;;;;;;;;-145.06;100.00;60892.56;5917437;23;19913;-90
2023/01/05 10:51:44;;;;;;;;;;;;;;;-145.06;100.00;60892.56;5916065;23;19905;-91
2023/01/05 10:54:37;;;;;;;;;;;;;;;-145.06;100.00;60892.56;5915978;23;19909;-91
2023/01/05 10:57:31;;;;;;;;;;;;;;;-145.06;100.00;60892.56;5916243;23;20221;-92
2023/01/05 11:00:20;;;;;;;;;;;;;;;-145.06;100.00;60892.56;5917376;23;19912;-91
2023/01/05 11:03:01;;;;;;;;;;;;;;;-145.06;100.00;60892.56;5916715;23;19905;-90
2023/01/05 11:05:42;;;;;;;;;;;;;;;-145.06;100.00;60892.56;5917078;23;20331;-91
2023/01/05 11:08:25;;;;;;;;;;;;;;;-145.06;100.00;60892.56;5916133;23;19909;-89
2023/01/05 11:11:06;;;;;;;;;;;;;;;-145.06;100.00;60892.56;5915910;23;20209;-90
2023/01/05 11:13:47;;;;;;;;;;;;;;;-145.06;100.00;60892.56;5916892;23;19975;-91
2023/01/05 11:16:33;;;;;;;;;;;;;;;-145.06;100.00;60892.56;5915897;23;19908;-92
2023/01/05 11:19:14;;;;;;;;;;;;;;;-145.06;100.00;60892.56;5915497;23;19901;-91
2023/01/05 11:21:53;;;;;;;;;;;;;;;-145.06;100.00;60892.56;5916186;23;19905;-91
2023/01/05 11:24:33;;;;;;;;;;;;;;;-145.06;100.00;60892.56;5915852;23;20430;-90
2023/01/05 11:27:19;;;;;;;;;;;;;;;-145.06;100.00;60892.56;5915581;23;20331;-90
2023/01/05 11:30:13;;;;;;;;;;;;;;;-145.06;100.00;60892.56;5915136;23;19904;-90
2023/01/05 11:32:52;;;;;;;;;;;;;;;-145.06;100.00;60892.56;5915612;23;19908;-90
2023/01/05 11:35:35;;;;;;;;;;;;;;;-145.06;100.00;60892.56;5916113;23;19913;-91
2023/01/05 11:38:20;;;;;;;;;;;;;;;-145.06;100.00;60892.56;5915363;23;20187;-90
2023/01/05 11:40:59;;;;;;;;;;;;;;;-145.06;100.00;60892.56;5915783;23;20186;-91
2023/01/05 11:43:39;;;;;;;;;;;;;;;-145.06;100.00;60892.56;5916313;23;19905;-90
2023/01/05 11:46:18;;;;;;;;;;;;;;;-145.06;100.00;60892.56;5916714;23;19905;-90
2023/01/05 11:48:57;;;;;;;;;;;;;;;-145.06;100.00;60892.56;5925434;23;19909;-91
2023/01/05 11:51:37;;;;;;;;;;;;;;;-145.06;100.00;60892.56;5894864;23;20323;-91
2023/01/05 11:54:25;;;;;;;;;;;;;;;-145.06;100.00;60892.56;5895997;23;20308;-90
2023/01/05 11:57:12;;;;;;;;;;;;;;;-145.06;100.00;60892.56;5894988;23;19905;-91
2023/01/05 11:59:53;;;;;;;;;;;;;;;-145.06;100.00;60892.56;5897179;23;20074;-91
2023/01/05 12:02:42;;;;;;;;;;;;;;;-145.06;100.00;60892.56;5898230;23;19904;-91
2023/01/05 12:05:21;;;;;;;;;;;;;;;-145.06;100.00;60892.56;5897096;23;19909;-91
2023/01/05 12:08:06;;;;;;;;;;;;;;;-145.06;100.00;60892.56;5898208;23;19912;-89
2023/01/05 12:10:45;;;;;;;;;;;;;;;-145.06;100.00;60892.56;5897569;23;19904;-91
2023/01/05 12:13:24;;;;;;;;;;;;;;;-145.06;100.00;60892.56;5896466;23;19905;-91
2023/01/05 12:16:06;;;;;;;;;;;;;;;-145.06;100.00;60892.56;5897624;23;19908;-91
2023/01/05 12:19:01;;;;;;;;;;;;;;;-145.06;100.00;60892.56;5896981;23;19905;-91
2023/01/05 12:21:45;;;;;;;;;;;;;;;-145.06;100.00;60892.56;5897858;23;19905;-90
2023/01/05 12:24:32;;;;;;;;;;;;;;;-145.06;100.00;60892.56;5897308;23;19905;-91
2023/01/05 12:27:28;;;;;;;;;;;;;;;-145.06;100.00;60892.56;5897006;23;19948;-91
2023/01/05 12:30:26;;;;;;;;;;;;;;;-145.06;100.00;60892.56;5898100;23;20145;-90
2023/01/05 12:33:16;;;;;;;;;;;;;;;-145.06;100.00;60892.56;5897862;23;19905;-91
2023/01/05 12:36:13;;;;;;;;;;;;;;;-145.06;100.00;60892.56;5896333;23;19904;-89
2023/01/05 12:39:11;;;;;;;;;;;;;;;-145.06;100.00;60892.56;5896925;23;19980;-90
2023/01/05 12:41:49;;;;;;;;;;;;;;;-145.06;100.00;60892.56;5897318;23;19904;-91
2023/01/05 12:44:53;;;;;;;;;;;;;;;-145.06;100.00;60892.56;5897214;23;20209;-91
2023/01/05 12:47:41;;;;;;;;;;;;;;;-145.06;100.00;60892.56;5896714;23;19912;-91
2023/01/05 12:50:37;;;;;;;;;;;;;;;-145.06;100.00;60892.56;5918277;23;19995;-91
2023/01/05 12:53:22;;;;;;;;;;;;;;;-145.06;100.00;60892.56;5896283;23;19908;-92
2023/01/05 12:56:04;;;;;;;;;;;;;;;-145.06;100.00;60892.56;5897008;23;19909;-91
2023/01/05 12:59:02;;;;;;;;;;;;;;;-145.06;100.00;60892.56;5897125;23;19908;-91
2023/01/05 13:01:45;;;;;;;;;;;;;;;-145.06;100.00;60892.56;5897214;23;19909;-90
2023/01/05 13:04:34;;;;;;;;;;;;;;;-145.06;100.00;60892.56;5898540;23;19908;-92
2023/01/05 13:07:22;;;;;;;;;;;;;;;-145.06;100.00;60892.56;5895951;23;19908;-91
2023/01/05 13:10:04;;;;;;;;;;;;;;;-145.06;100.00;60892.56;5898593;23;19925;-90
2023/01/05 13:12:43;;;;;;;;;;;;;;;-145.06;100.00;60892.56;5898939;23;19991;-91
2023/01/05 13:15:27;;;;;;;;;;;;;;;-145.06;100.00;60892.56;5915555;23;19901;-90
2023/01/05 13:18:12;;;;;;;;;;;;;;;-145.06;100.00;60892.56;5914967;23;19901;-90
2023/01/05 13:20:53;;;;;;;;;;;;;;;-145.06;100.00;60892.56;5898788;23;19908;-91
2023/01/05 13:23:35;;;;;;;;;;;;;;;-145.06;100.00;60892.56;5898001;23;19905;-91
2023/01/05 13:26:15;;;;;;;;;;;;;;;-145.06;100.00;60892.56;5897487;23;19924;-91
2023/01/05 13:28:54;;;;;;;;;;;;;;;-145.06;100.00;60892.56;5896945;23;19904;-92
2023/01/05 13:31:37;;;;;;;;;;;;;;;-145.06;100.00;60892.56;5897837;23;19905;-90
2023/01/05 13:34:54;;;;;;;;;;;;;;;-145.06;100.00;60892.56;5896901;23;19909;-90
2023/01/05 13:37:38;;;;;;;;;;;;;;;-145.06;100.00;60892.56;5784680;23;19906;-91
2023/01/05 13:40:33;;;;;;;;;;;;;;;-145.06;100.00;60892.56;5784790;23;19906;-90
2023/01/05 13:43:30;;;;;;;;;;;;;;;-145.06;100.00;60892.56;5886391;23;19905;-92
2023/01/05 13:46:15;;;;;;;;;;;;;;;-145.06;100.00;60892.56;5897237;23;19944;-91
2023/01/05 13:49:07;;;;;;;;;;;;;;;-145.06;100.00;60892.56;5913978;23;19916;-91
2023/01/05 13:51:51;;;;;;;;;;;;;;;-145.06;100.00;60892.56;5917377;23;19904;-90
2023/01/05 13:54:41;;;;;;;;;;;;;;;-145.06;100.00;60892.56;5916988;23;19909;-90
2023/01/05 13:57:25;;;;;;;;;;;;;;;-145.06;100.00;60892.56;5917108;23;19909;-91
2023/01/05 14:00:07;;;;;;;;;;;;;;;-145.06;100.00;60892.56;5917244;23;19980;-90
2023/01/05 14:02:55;;;;;;;;;;;;;;;-145.06;100.00;60892.56;5917180;23;19909;-90